Time;durP1;ratioP1;P1;durP2;ratioP2;P2;SDS_P1;SDS_P2;PMS_P1;PMS_P2;Temp;Humidity;BMP_temperature;BMP_pressure;BME280_temperature;BME280_humidity;BME280_pressure;Samples;Min_cycle;Max_cycle;Signal;HPM_P1;HPM_P2
2024/04/05 00:01:16;;;;;;;0.10;0.10;;;;;;;12.91;55.55;101556.53;5013846;28;20025;-87
2024/04/05 00:03:42;;;;;;;0.20;0.20;;;;;;;12.73;56.32;101530.50;5013653;28;20159;-86
2024/04/05 00:06:07;;;;;;;0.20;0.20;;;;;;;12.85;56.46;101551.59;5029783;28;20029;-86
2024/04/05 00:08:33;;;;;;;0.20;0.20;;;;;;;12.80;56.15;101545.75;4997112;28;20418;-86
2024/04/05 00:10:59;;;;;;;0.20;0.20;;;;;;;12.89;55.51;101547.13;5012847;28;20481;-86
2024/04/05 00:13:25;;;;;;;0.20;0.20;;;;;;;12.81;56.16;101529.25;5013505;28;20087;-88
2024/04/05 00:15:52;;;;;;;0.10;0.10;;;;;;;12.93;55.87;101552.09;5013368;28;20486;-86
2024/04/05 00:18:19;;;;;;;0.10;0.10;;;;;;;12.74;56.14;101535.63;5013826;28;20033;-87
2024/04/05 00:20:44;;;;;;;0.20;0.20;;;;;;;12.68;56.30;101532.44;4996928;28;20033;-88
2024/04/05 00:23:10;;;;;;;0.20;0.20;;;;;;;12.62;56.91;101541.34;4996967;28;20429;-86
2024/04/05 00:25:35;;;;;;;0.20;0.20;;;;;;;12.56;56.75;101518.25;5012867;28;20386;-88
2024/04/05 00:28:01;;;;;;;0.10;0.10;;;;;;;12.74;56.82;101552.97;5029734;28;20025;-87
2024/04/05 00:30:26;;;;;;;0.10;0.10;;;;;;;12.80;56.72;101550.13;5012711;28;20037;-86
2024/04/05 00:32:52;;;;;;;0.10;0.10;;;;;;;12.78;56.56;101550.19;5029409;28;20103;-86
2024/04/05 00:35:17;;;;;;;0.20;0.20;;;;;;;12.72;56.91;101547.00;5029531;28;20033;-87
2024/04/05 00:37:43;;;;;;;0.10;0.10;;;;;;;12.83;57.15;101552.56;5013169;28;20029;-87
2024/04/05 00:40:09;;;;;;;0.20;0.20;;;;;;;12.78;57.17;101550.19;5012819;28;20029;-87
2024/04/05 00:42:37;;;;;;;0.20;0.20;;;;;;;12.80;56.77;101558.75;5013021;28;20124;-87
2024/04/05 00:45:06;;;;;;;0.20;0.20;;;;;;;12.83;56.50;101542.19;5013173;28;20037;-87
2024/04/05 00:47:32;;;;;;;0.17;0.17;;;;;;;12.83;56.39;101535.22;4997099;28;20033;-86
2024/04/05 00:50:01;;;;;;;0.20;0.20;;;;;;;12.74;55.95;101512.25;5012759;28;20053;-88
2024/04/05 00:52:27;;;;;;;0.10;0.10;;;;;;;12.73;56.51;101523.56;5013299;28;20036;-87
2024/04/05 00:54:53;;;;;;;0.10;0.10;;;;;;;12.81;56.50;101539.66;5012504;28;20034;-87
2024/04/05 00:57:19;;;;;;;0.20;0.20;;;;;;;12.79;56.56;101545.84;5029211;28;20029;-87
2024/04/05 00:59:45;;;;;;;0.10;0.10;;;;;;;12.75;56.51;101539.91;5029376;28;20482;-87
2024/04/05 01:02:10;;;;;;;0.10;0.10;;;;;;;12.76;56.75;101543.34;4996461;28;20489;-88
2024/04/05 01:04:36;;;;;;;0.20;0.20;;;;;;;12.73;56.45;101546.94;5013007;28;20438;-87
2024/04/05 01:07:01;;;;;;;0.10;0.10;;;;;;;12.69;56.36;101547.13;5029526;28;20548;-88
2024/04/05 01:09:27;;;;;;;0.10;0.10;;;;;;;12.56;56.30;101523.44;5012612;28;20030;-87
2024/04/05 01:11:58;;;;;;;0.20;0.20;;;;;;;12.70;56.10;101541.88;5012410;28;20033;-87
2024/04/05 01:14:24;;;;;;;0.20;0.20;;;;;;;12.69;56.37;101552.34;5012793;28;20029;-88
2024/04/05 01:16:50;;;;;;;0.20;0.20;;;;;;;12.62;57.51;101549.16;5012892;28;20037;-87
2024/04/05 01:19:16;;;;;;;0.20;0.20;;;;;;;12.59;57.39;101554.47;5028912;28;20563;-88
2024/04/05 01:21:45;;;;;;;0.20;0.20;;;;;;;12.51;57.31;101543.56;5013130;28;20140;-87
2024/04/05 01:24:11;;;;;;;0.10;0.10;;;;;;;12.54;57.34;101551.22;5028836;28;20104;-86
2024/04/05 01:26:36;;;;;;;0.15;0.15;;;;;;;12.43;58.07;101556.88;5012356;28;20113;-86
2024/04/05 01:29:02;;;;;;;0.10;0.10;;;;;;;12.49;57.61;101558.38;5029204;28;20096;-86
2024/04/05 01:31:27;;;;;;;0.20;0.20;;;;;;;12.53;57.68;101557.31;4995948;28;20083;-87
2024/04/05 01:33:54;;;;;;;0.20;0.20;;;;;;;12.43;57.70;101535.25;5012491;28;20045;-87
2024/04/05 01:36:19;;;;;;;0.10;0.10;;;;;;;12.57;57.69;101557.13;4996570;28;20087;-88
2024/04/05 01:38:45;;;;;;;0.20;0.20;;;;;;;12.54;58.26;101557.25;5028535;28;20029;-87
2024/04/05 01:41:10;;;;;;;0.20;0.20;;;;;;;12.48;58.29;101559.25;5012457;28;20033;-86
2024/04/05 01:43:36;;;;;;;0.20;0.20;;;;;;;12.43;57.85;101543.03;5028980;28;20036;-86
2024/04/05 01:46:01;;;;;;;0.20;0.20;;;;;;;12.46;58.23;101554.13;5029187;28;20041;-88
2024/04/05 01:48:27;;;;;;;0.20;0.20;;;;;;;12.46;58.79;101553.28;5012275;28;20021;-87
2024/04/05 01:50:53;;;;;;;0.20;0.20;;;;;;;12.48;58.42;101554.06;4996084;28;20032;-87
2024/04/05 01:53:18;;;;;;;0.20;0.20;;;;;;;12.30;58.71;101537.53;4995708;28;20033;-88
2024/04/05 01:55:44;;;;;;;0.10;0.10;;;;;;;12.42;59.87;101554.34;5012515;28;20398;-88
2024/04/05 01:58:10;;;;;;;0.20;0.20;;;;;;;12.31;60.13;101555.63;4999474;28;20474;-87
2024/04/05 02:00:36;;;;;;;0.20;0.20;;;;;;;12.34;59.98;101560.69;5015849;28;20029;-86
2024/04/05 02:03:02;;;;;;;0.10;0.10;;;;;;;12.25;60.39;101550.69;5015560;28;20536;-85
2024/04/05 02:05:27;;;;;;;0.20;0.20;;;;;;;12.17;60.82;101552.75;5015766;28;20033;-87
2024/04/05 02:07:53;;;;;;;0.10;0.10;;;;;;;12.30;60.21;101558.28;5031924;28;20044;-88
2024/04/05 02:10:18;;;;;;;0.20;0.20;;;;;;;12.30;59.80;101558.28;5033062;28;20075;-87
2024/04/05 02:12:44;;;;;;;0.20;0.20;;;;;;;12.30;60.01;101566.06;5015531;28;20148;-87
2024/04/05 02:15:09;;;;;;;0.10;0.10;;;;;;;12.37;59.80;101574.44;5031821;28;20034;-86
2024/04/05 02:17:35;;;;;;;0.20;0.20;;;;;;;12.29;60.41;101578.22;5015875;28;20025;-88
2024/04/05 02:20:00;;;;;;;0.10;0.10;;;;;;;12.18;60.14;101564.78;5031753;28;20071;-87
2024/04/05 02:22:26;;;;;;;0.20;0.20;;;;;;;12.30;60.02;101573.84;4998668;28;20040;-87
2024/04/05 02:24:51;;;;;;;0.10;0.10;;;;;;;12.31;59.84;101575.53;5015301;28;20044;-88
2024/04/05 02:27:17;;;;;;;0.20;0.20;;;;;;;12.25;59.58;101566.25;5015319;28;20029;-88
2024/04/05 02:29:43;;;;;;;0.10;0.10;;;;;;;12.21;59.79;101569.88;4998914;28;20049;-87
2024/04/05 02:32:08;;;;;;;0.20;0.20;;;;;;;12.21;59.61;101558.66;5014945;28;20045;-86
2024/04/05 02:34:34;;;;;;;0.20;0.20;;;;;;;12.21;59.68;101558.66;5015089;28;20056;-87
2024/04/05 02:36:59;;;;;;;0.17;0.17;;;;;;;12.22;59.23;101563.78;5014863;28;20402;-87
2024/04/05 02:39:25;;;;;;;0.20;0.20;;;;;;;12.29;59.19;101567.81;5015192;28;20033;-88
2024/04/05 02:41:50;;;;;;;0.20;0.20;;;;;;;12.26;59.80;101577.47;5015121;28;20119;-87
2024/04/05 02:44:16;;;;;;;0.20;0.20;;;;;;;12.07;59.90;101552.25;4998668;28;20037;-87
2024/04/05 02:46:42;;;;;;;0.13;0.13;;;;;;;12.14;60.73;101571.03;4998538;28;20498;-86
2024/04/05 02:49:08;;;;;;;0.10;0.10;;;;;;;12.18;60.19;101575.19;5015035;28;20029;-86
2024/04/05 02:51:34;;;;;;;0.10;0.10;;;;;;;12.29;59.35;101567.81;5014558;28;20075;-87
2024/04/05 02:53:59;;;;;;;0.20;0.20;;;;;;;12.43;58.31;101574.19;5014652;28;20044;-86
2024/04/05 02:56:25;;;;;;;0.10;0.10;;;;;;;12.54;57.42;101572.81;5015079;28;20970;-86
2024/04/05 02:58:50;;;;;;;0.20;0.20;;;;;;;12.52;57.01;101566.84;5014781;28;20119;-86
2024/04/05 03:01:16;;;;;;;0.20;0.20;;;;;;;12.50;57.08;101571.28;5031300;28;20064;-87
2024/04/05 03:03:41;;;;;;;0.20;0.20;;;;;;;12.52;57.42;101579.00;5014794;28;20126;-82
2024/04/05 03:06:07;;;;;;;0.10;0.10;;;;;;;12.50;57.24;101575.63;5014377;28;20467;-82
2024/04/05 03:08:34;;;;;;;0.10;0.10;;;;;;;12.54;56.95;101580.63;5014188;28;20029;-82
2024/04/05 03:10:59;;;;;;;0.20;0.20;;;;;;;12.56;56.93;101578.78;5014349;28;20510;-85
2024/04/05 03:13:25;;;;;;;0.20;0.20;;;;;;;12.66;56.79;101571.47;5014403;28;20034;-82
2024/04/05 03:15:50;;;;;;;0.10;0.10;;;;;;;12.70;56.51;101570.44;5031962;28;20033;-83
2024/04/05 03:18:16;;;;;;;0.10;0.10;;;;;;;12.77;56.89;101579.63;5014348;28;20033;-83
2024/04/05 03:20:44;;;;;;;0.20;0.20;;;;;;;12.78;57.36;101586.53;5013721;28;20060;-83
2024/04/05 03:23:13;;;;;;;0.20;0.20;;;;;;;12.74;57.08;101584.97;5014293;28;20037;-82
2024/04/05 03:25:38;;;;;;;0.20;0.20;;;;;;;12.68;57.48;101585.22;5014916;28;20036;-82
2024/04/05 03:28:04;;;;;;;0.20;0.20;;;;;;;12.56;57.07;101546.81;4997809;28;20030;-82
2024/04/05 03:30:30;;;;;;;0.20;0.20;;;;;;;12.75;56.71;101581.44;5027165;28;20501;-84
2024/04/05 03:32:56;;;;;;;0.20;0.20;;;;;;;12.70;57.14;101583.41;5013321;28;20084;-83
2024/04/05 03:35:21;;;;;;;0.20;0.20;;;;;;;12.56;57.43;101583.13;5029641;28;20414;-84
2024/04/05 03:37:51;;;;;;;0.20;0.20;;;;;;;12.46;57.18;101568.84;5013680;28;20022;-83
2024/04/05 03:40:16;;;;;;;0.20;0.20;;;;;;;12.46;57.60;101592.22;5014188;28;20120;-83
2024/04/05 03:42:42;;;;;;;0.10;0.10;;;;;;;12.55;57.34;101597.88;4996883;28;20044;-84
2024/04/05 03:45:07;;;;;;;0.20;0.20;;;;;;;12.56;56.90;101596.13;5013685;28;20441;-84
2024/04/05 03:47:33;;;;;;;0.20;0.20;;;;;;;12.58;57.74;101599.47;5013854;28;20478;-84
2024/04/05 03:49:58;;;;;;;0.15;0.15;;;;;;;12.41;57.59;101565.63;5030975;28;20062;-84
2024/04/05 03:52:24;;;;;;;0.20;0.20;;;;;;;12.56;57.74;101609.94;5029435;28;20030;-84
2024/04/05 03:54:49;;;;;;;0.20;0.20;;;;;;;12.53;57.41;101596.25;4996909;28;20029;-85
2024/04/05 03:57:15;;;;;;;0.20;0.20;;;;;;;12.63;57.40;101613.13;5030158;28;20037;-83
2024/04/05 03:59:40;;;;;;;0.20;0.20;;;;;;;12.57;57.49;101603.84;5013100;28;20041;-84
2024/04/05 04:02:06;;;;;;;0.20;0.20;;;;;;;12.55;56.69;101615.19;5029777;28;20505;-84
2024/04/05 04:04:32;;;;;;;0.20;0.20;;;;;;;12.55;56.80;101618.63;5029539;28;20117;-85
2024/04/05 04:06:57;;;;;;;0.10;0.10;;;;;;;12.57;56.83;101615.97;5013424;28;20064;-84
2024/04/05 04:09:23;;;;;;;0.20;0.20;;;;;;;12.51;57.30;101631.81;5009987;28;20090;-85
2024/04/05 04:11:49;;;;;;;0.20;0.20;;;;;;;12.41;57.17;101633.09;5011734;28;20048;-84
2024/04/05 04:14:15;;;;;;;0.20;0.20;;;;;;;12.23;57.99;101614.75;5028964;28;20375;-85
2024/04/05 04:16:40;;;;;;;0.20;0.20;;;;;;;12.40;57.42;101626.22;4996195;28;20482;-85
2024/04/05 04:19:07;;;;;;;0.13;0.13;;;;;;;12.27;57.58;101631.88;5026554;28;20029;-90
2024/04/05 04:21:33;;;;;;;0.10;0.10;;;;;;;12.35;57.39;101644.56;5031748;28;20026;-91
2024/04/05 04:23:58;;;;;;;0.20;0.20;;;;;;;12.33;57.57;101644.63;5045952;28;20025;-88
2024/04/05 04:26:24;;;;;;;0.20;0.20;;;;;;;12.34;58.01;101643.72;5045936;28;20536;-87
2024/04/05 04:28:50;;;;;;;0.20;0.20;;;;;;;12.41;58.35;101659.06;5031467;28;20401;-87
2024/04/05 04:31:22;;;;;;;0.20;0.20;;;;;;;12.44;58.54;101653.72;5012001;28;20497;-89
2024/04/05 04:33:51;;;;;;;0.10;0.10;;;;;;;12.44;58.40;101664.09;5012457;28;20036;-91
2024/04/05 04:36:20;;;;;;;0.20;0.20;;;;;;;12.34;57.67;101663.63;5033311;28;20040;-91
2024/04/05 04:38:46;;;;;;;0.10;0.10;;;;;;;12.37;57.31;101666.09;5032671;28;20037;-93
2024/04/05 04:41:14;;;;;;;0.20;0.20;;;;;;;12.22;57.40;101653.75;5034436;28;20033;-91
2024/04/05 04:43:40;;;;;;;0.20;0.20;;;;;;;12.12;57.78;101645.47;5019180;28;20183;-91
2024/04/05 04:46:06;;;;;;;0.10;0.10;;;;;;;12.19;58.51;101659.91;5015773;28;20072;-91
2024/04/05 04:48:31;;;;;;;0.20;0.20;;;;;;;12.13;58.19;101651.50;5028391;28;20215;-91
2024/04/05 04:50:57;;;;;;;0.20;0.20;;;;;;;12.15;58.47;101668.69;5031455;28;20159;-93
2024/04/05 04:53:23;;;;;;;0.20;0.20;;;;;;;12.09;58.01;101663.72;5063898;28;20037;-86
2024/04/05 04:55:48;;;;;;;0.20;0.20;;;;;;;11.92;57.66;101627.25;5001272;28;20033;-93
2024/04/05 04:58:17;;;;;;;0.10;0.10;;;;;;;12.11;57.67;101667.13;5030811;28;20076;-84
2024/04/05 05:00:46;;;;;;;0.20;0.20;;;;;;;11.93;57.71;101636.72;5027710;28;20067;-86
2024/04/05 05:03:12;;;;;;;0.20;0.20;;;;;;;12.08;57.52;101659.44;5012286;28;20018;-87
2024/04/05 05:05:40;;;;;;;0.20;0.20;;;;;;;12.02;57.88;101655.38;5010530;28;20025;-89
2024/04/05 05:08:07;;;;;;;0.20;0.20;;;;;;;12.16;57.89;101674.72;5013068;28;20025;-88
2024/04/05 05:10:33;;;;;;;0.20;0.20;;;;;;;12.14;57.31;101661.81;5011511;28;20025;-83
2024/04/05 05:12:59;;;;;;;0.20;0.20;;;;;;;12.37;56.81;101683.41;5026900;28;20149;-91
2024/04/05 05:15:26;;;;;;;0.20;0.20;;;;;;;12.50;56.32;101675.09;5030308;28;20033;-89
2024/04/05 05:17:52;;;;;;;0.20;0.20;;;;;;;12.57;56.32;101691.25;5009321;28;20030;-89
2024/04/05 05:20:21;;;;;;;0.20;0.20;;;;;;;12.78;55.54;101685.22;5004372;28;20175;-79
2024/04/05 05:22:48;;;;;;;0.10;0.10;;;;;;;12.84;55.31;101689.28;5014595;28;20049;-90
2024/04/05 05:25:14;;;;;;;0.20;0.20;;;;;;;12.86;54.86;101677.91;5015863;28;20028;-87
2024/04/05 05:27:40;;;;;;;0.20;0.20;;;;;;;13.00;54.93;101689.50;5030455;28;20021;-86
2024/04/05 05:30:06;;;;;;;0.20;0.20;;;;;;;13.02;55.05;101670.34;5028885;28;20418;-86
2024/04/05 05:32:31;;;;;;;0.10;0.10;;;;;;;13.09;55.60;101657.94;5031840;28;20136;-85
2024/04/05 05:34:57;;;;;;;0.20;0.20;;;;;;;13.25;54.93;101658.97;5034379;28;20040;-83
2024/04/05 05:37:22;;;;;;;0.20;0.20;;;;;;;13.53;54.50;101687.22;5035866;28;20041;-86
2024/04/05 05:39:49;;;;;;;0.20;0.20;;;;;;;13.70;54.12;101684.69;5017044;28;20032;-88
2024/04/05 05:42:14;;;;;;;0.20;0.20;;;;;;;13.81;54.49;101688.56;5033133;28;20033;-91
2024/04/05 05:44:40;;;;;;;0.20;0.20;;;;;;;13.92;54.63;101701.94;5021780;28;20076;-89
2024/04/05 05:47:06;;;;;;;0.20;0.20;;;;;;;14.04;54.14;101702.19;5036856;28;20029;-91
2024/04/05 05:49:32;;;;;;;0.20;0.20;;;;;;;14.13;54.18;101689.69;5032106;28;20492;-86
2024/04/05 05:51:57;;;;;;;0.20;0.20;;;;;;;14.16;54.34;101694.72;5031393;28;20033;-87
2024/04/05 05:54:23;;;;;;;0.20;0.20;;;;;;;14.33;54.00;101710.41;5032974;28;20034;-87
2024/04/05 05:56:53;;;;;;;0.17;0.17;;;;;;;14.47;53.33;101715.84;5034637;28;20024;-93
2024/04/05 05:59:18;;;;;;;0.20;0.20;;;;;;;14.54;53.11;101717.22;5043135;23;20080;-88
2024/04/05 06:01:44;;;;;;;0.20;0.20;;;;;;;14.61;53.06;101703.00;4982539;28;20517;-90
2024/04/05 06:04:10;;;;;;;0.20;0.20;;;;;;;14.74;53.00;101705.00;5017929;28;20070;-90
2024/04/05 06:06:37;;;;;;;0.10;0.10;;;;;;;14.82;53.69;101697.66;4993713;28;20037;-90
2024/04/05 06:09:03;;;;;;;0.10;0.10;;;;;;;14.99;54.48;101715.91;4998320;28;20037;-86
2024/04/05 06:11:28;;;;;;;0.10;0.10;;;;;;;15.13;53.37;101726.47;4998837;28;20021;-88
2024/04/05 06:13:54;;;;;;;0.20;0.20;;;;;;;15.12;51.96;101703.94;5014713;28;20068;-88
2024/04/05 06:16:19;;;;;;;0.10;0.10;;;;;;;15.29;52.35;101695.25;5013016;28;20042;-86
2024/04/05 06:18:45;;;;;;;0.20;0.20;;;;;;;15.58;52.16;101727.63;5013284;28;20032;-88
2024/04/05 06:21:11;;;;;;;0.10;0.10;;;;;;;15.70;51.25;101716.59;5017826;28;20461;-84
2024/04/05 06:23:37;;;;;;;0.20;0.20;;;;;;;15.89;50.99;101716.44;4996079;28;20045;-88
2024/04/05 06:26:03;;;;;;;0.10;0.10;;;;;;;16.11;50.99;101725.72;5015110;28;20037;-91
2024/04/05 06:28:29;;;;;;;0.20;0.20;;;;;;;16.27;50.66;101743.06;5014631;28;20494;-89
2024/04/05 06:30:54;;;;;;;0.10;0.10;;;;;;;16.31;50.04;101730.69;5002084;28;20149;-88
2024/04/05 06:33:20;;;;;;;0.20;0.20;;;;;;;16.43;50.60;101742.25;5033735;28;20025;-90
2024/04/05 06:35:45;;;;;;;0.20;0.20;;;;;;;16.55;50.44;101741.56;5000294;28;20067;-86
2024/04/05 06:38:11;;;;;;;0.20;0.20;;;;;;;16.66;50.37;101741.78;5014897;28;20413;-90
2024/04/05 06:40:36;;;;;;;0.20;0.20;;;;;;;16.90;49.33;101747.41;5013099;28;20033;-88
2024/04/05 06:43:03;;;;;;;0.20;0.20;;;;;;;17.02;49.25;101743.25;5013568;28;20026;-89
2024/04/05 06:45:28;;;;;;;0.20;0.20;;;;;;;17.10;49.18;101731.41;5014454;28;20021;-86
2024/04/05 06:47:55;;;;;;;0.20;0.20;;;;;;;17.25;48.28;101742.75;5014393;28;20536;-85
2024/04/05 06:50:25;;;;;;;0.20;0.20;;;;;;;17.51;47.12;101748.19;5014555;28;20109;-92
2024/04/05 06:53:01;;;;;;;0.20;0.20;;;;;;;17.66;46.74;101752.50;5015152;28;20040;-90
2024/04/05 06:55:26;;;;;;;0.20;0.20;;;;;;;17.74;45.05;101751.13;5038823;28;20040;-90
2024/04/05 06:57:52;;;;;;;0.20;0.20;;;;;;;17.85;44.77;101753.09;5034791;28;20414;-92
2024/04/05 07:00:19;;;;;;;0.20;0.20;;;;;;;17.96;44.97;101758.50;4997866;28;20489;-88
2024/04/05 07:02:44;;;;;;;0.20;0.20;;;;;;;18.10;43.43;101755.03;4994826;28;20030;-90
2024/04/05 07:05:10;;;;;;;0.20;0.20;;;;;;;18.27;44.04;101760.03;5019366;28;20480;-86
2024/04/05 07:07:36;;;;;;;0.20;0.20;;;;;;;18.42;43.57;101760.00;5032399;28;20391;-91
2024/04/05 07:10:02;;;;;;;0.10;0.10;;;;;;;18.55;42.49;101756.50;4997548;28;20362;-92
2024/04/05 07:12:27;;;;;;;0.20;0.20;;;;;;;18.74;42.96;101752.72;5018581;28;20033;-91
2024/04/05 07:14:54;;;;;;;0.20;0.20;;;;;;;18.96;41.92;101760.00;5014576;28;20034;-90
2024/04/05 07:17:19;;;;;;;0.20;0.20;;;;;;;19.17;42.62;101767.31;5013925;28;20029;-85
2024/04/05 07:19:47;;;;;;;0.20;0.20;;;;;;;19.11;41.99;101767.72;4995072;28;20042;-84
2024/04/05 07:22:15;;;;;;;0.20;0.20;;;;;;;19.00;41.62;101743.97;4998110;28;20028;-90
2024/04/05 07:24:43;;;;;;;0.20;0.20;;;;;;;19.06;41.77;101772.41;5017569;28;20045;-91
2024/04/05 07:27:10;;;;;;;0.20;0.20;;;;;;;18.96;40.54;101779.19;5037823;28;20032;-91
2024/04/05 07:29:36;;;;;;;0.20;0.20;;;;;;;19.02;42.17;101778.81;5002699;28;20033;-92
2024/04/05 07:32:04;;;;;;;0.20;0.20;;;;;;;19.20;41.85;101776.75;5015175;28;20029;-91
2024/04/05 07:34:30;;;;;;;0.20;0.20;;;;;;;19.32;42.37;101785.56;5003057;28;20025;-93
2024/04/05 07:36:56;;;;;;;0.20;0.20;;;;;;;19.48;41.60;101786.22;5031450;28;20029;-83
2024/04/05 07:39:22;;;;;;;0.20;0.20;;;;;;;19.49;41.36;101767.75;5039422;28;20028;-92
2024/04/05 07:41:47;;;;;;;0.20;0.20;;;;;;;19.58;41.10;101771.56;5035489;28;20037;-85
2024/04/05 07:44:13;;;;;;;0.20;0.20;;;;;;;19.57;40.87;101775.13;4993035;28;20115;-88
2024/04/05 07:46:38;;;;;;;0.10;0.10;;;;;;;19.60;40.87;101767.03;5012748;28;20030;-80
2024/04/05 07:49:04;;;;;;;0.20;0.20;;;;;;;19.60;40.73;101764.41;5030748;28;20107;-85
2024/04/05 07:51:30;;;;;;;0.17;0.17;;;;;;;19.53;41.21;101743.91;5006928;28;20453;-91
2024/04/05 07:53:55;;;;;;;0.20;0.20;;;;;;;19.79;40.49;101763.16;5014861;28;20108;-89
2024/04/05 07:56:22;;;;;;;0.20;0.20;;;;;;;19.92;40.77;101758.69;5022165;28;20091;-88
2024/04/05 07:58:47;;;;;;;0.20;0.20;;;;;;;20.05;40.13;101770.00;5012599;28;20091;-87
2024/04/05 08:01:13;;;;;;;0.20;0.20;;;;;;;20.20;39.13;101758.44;5010161;28;20058;-91
2024/04/05 08:03:38;;;;;;;0.20;0.20;;;;;;;20.19;39.25;101742.78;4977228;28;20030;-90
2024/04/05 08:06:05;;;;;;;0.20;0.20;;;;;;;20.29;38.20;101734.13;5024437;28;20040;-88
2024/04/05 08:08:31;;;;;;;0.20;0.20;;;;;;;20.59;38.84;101760.00;5014886;28;20025;-92
2024/04/05 08:11:00;;;;;;;0.20;0.20;;;;;;;20.69;38.58;101765.41;5015677;28;20462;-83
2024/04/05 08:13:26;;;;;;;0.20;0.20;;;;;;;20.72;38.36;101759.09;4997486;28;20080;-90
2024/04/05 08:15:51;;;;;;;0.20;0.20;;;;;;;20.85;38.48;101760.72;5013548;28;21077;-92
2024/04/05 08:18:17;;;;;;;0.20;0.20;;;;;;;20.97;39.00;101769.47;5030009;28;21135;-89
2024/04/05 08:20:43;;;;;;;0.20;0.20;;;;;;;21.01;38.97;101770.06;5013641;28;20041;-91
2024/04/05 08:23:10;;;;;;;0.10;0.10;;;;;;;21.14;38.82;101765.59;5013235;28;20024;-92
2024/04/05 08:25:36;;;;;;;0.20;0.20;;;;;;;21.24;38.69;101761.31;5033282;28;20037;-92
2024/04/05 08:28:02;;;;;;;0.20;0.20;;;;;;;21.39;38.00;101760.16;5000796;28;20026;-90
2024/04/05 08:30:28;;;;;;;0.20;0.20;;;;;;;21.52;39.97;101744.25;5013133;28;20080;-90
2024/04/05 08:32:54;;;;;;;0.20;0.20;;;;;;;21.74;39.92;101759.25;5012052;28;20042;-88
2024/04/05 08:35:19;;;;;;;0.20;0.20;;;;;;;21.71;37.18;101754.19;5029771;28;20148;-88
2024/04/05 08:37:45;;;;;;;0.10;0.10;;;;;;;21.87;38.60;101759.09;5012304;28;20030;-90
2024/04/05 08:40:10;;;;;;;0.10;0.10;;;;;;;22.04;37.29;101764.72;5029263;28;20029;-91
2024/04/05 08:42:37;;;;;;;0.20;0.20;;;;;;;22.10;36.94;101757.31;5007588;28;20072;-88
2024/04/05 08:45:03;;;;;;;0.10;0.10;;;;;;;22.25;36.82;101758.72;4993796;28;20049;-92
2024/04/05 08:47:31;;;;;;;0.15;0.15;;;;;;;22.32;36.47;101754.66;4980666;28;20426;-92
2024/04/05 08:49:57;;;;;;;0.20;0.20;;;;;;;22.36;36.89;101745.50;5025455;28;20414;-91
2024/04/05 08:52:22;;;;;;;0.20;0.20;;;;;;;22.51;35.80;101757.44;5027639;28;20057;-89
2024/04/05 08:54:48;;;;;;;0.20;0.20;;;;;;;22.50;36.00;101753.13;5014158;28;20037;-88
2024/04/05 08:57:15;;;;;;;0.20;0.20;;;;;;;22.60;35.68;101753.22;5013608;28;20025;-90
2024/04/05 08:59:45;;;;;;;0.20;0.20;;;;;;;22.80;36.33;101749.78;5010627;28;21514;-90
2024/04/05 09:02:10;;;;;;;0.20;0.20;;;;;;;23.00;34.88;101740.22;4995822;28;20056;-89
2024/04/05 09:04:36;;;;;;;0.20;0.20;;;;;;;23.15;34.10;101740.75;5001464;28;20152;-93
2024/04/05 09:07:02;;;;;;;0.20;0.20;;;;;;;23.19;34.28;101735.06;5041411;28;20509;-92
2024/04/05 09:09:32;;;;;;;0.20;0.20;;;;;;;23.21;34.00;101715.66;5007023;28;20022;-87
2024/04/05 09:12:04;;;;;;;0.20;0.20;;;;;;;23.40;33.29;101724.50;5028422;28;20036;-91
2024/04/05 09:14:30;;;;;;;0.20;0.20;;;;;;;23.61;32.82;101728.94;4991812;28;20040;-84
2024/04/05 09:16:57;;;;;;;0.20;0.20;;;;;;;23.72;32.91;101721.75;5008159;28;20029;-89
2024/04/05 09:19:22;;;;;;;0.20;0.20;;;;;;;23.85;31.87;101739.16;5016750;28;20616;-88
2024/04/05 09:21:48;;;;;;;0.20;0.20;;;;;;;23.87;31.28;101750.44;5016270;28;20056;-89
2024/04/05 09:24:17;;;;;;;0.20;0.20;;;;;;;23.85;33.08;101745.28;5015625;28;20075;-89
2024/04/05 09:26:44;;;;;;;0.20;0.20;;;;;;;23.97;32.03;101740.72;5031683;28;20037;-88
2024/04/05 09:29:12;;;;;;;0.20;0.20;;;;;;;24.07;32.10;101725.72;5034356;28;20105;-93
2024/04/05 09:31:38;;;;;;;0.20;0.20;;;;;;;24.21;30.68;101722.72;5038370;28;20048;-93
2024/04/05 09:34:09;;;;;;;0.20;0.20;;;;;;;24.19;28.99;101731.75;5104349;23;20045;-91
2024/04/05 09:36:35;;;;;;;0.20;0.20;;;;;;;24.37;30.30;101742.50;5016678;28;20034;-91
2024/04/05 09:39:02;;;;;;;0.20;0.20;;;;;;;24.52;30.97;101741.13;5031813;28;20682;-89
2024/04/05 09:41:28;;;;;;;0.20;0.20;;;;;;;24.71;30.21;101730.56;5012334;28;20513;-90
2024/04/05 09:43:54;;;;;;;0.20;0.20;;;;;;;24.80;30.29;101735.00;4991655;28;20066;-91
2024/04/05 09:46:20;;;;;;;0.20;0.20;;;;;;;24.86;28.26;101729.13;5033764;28;20143;-86
2024/04/05 09:48:45;;;;;;;0.20;0.20;;;;;;;24.84;28.24;101741.69;5028799;28;20041;-88
2024/04/05 09:51:13;;;;;;;0.20;0.20;;;;;;;24.98;28.59;101732.47;5014296;28;20038;-85
2024/04/05 09:53:45;;;;;;;0.20;0.20;;;;;;;25.04;28.26;101731.09;5014681;28;20422;-85
2024/04/05 09:56:12;;;;;;;0.20;0.20;;;;;;;25.14;27.68;101724.78;5011232;28;20467;-85
2024/04/05 09:58:39;;;;;;;0.20;0.20;;;;;;;25.19;27.00;101713.78;5030549;28;20041;-87
2024/04/05 10:01:08;;;;;;;0.20;0.20;;;;;;;25.16;26.95;101693.69;5030807;28;20037;-84
2024/04/05 10:03:33;;;;;;;0.20;0.20;;;;;;;25.48;26.82;101712.84;5015362;28;20516;-84
2024/04/05 10:06:18;;;;;;;0.20;0.20;;;;;;;25.59;27.16;101715.31;5016032;28;20033;-85
2024/04/05 10:08:43;;;;;;;0.20;0.20;;;;;;;25.49;26.27;101717.16;5031663;28;20039;-91
2024/04/05 10:11:13;;;;;;;0.20;0.20;;;;;;;25.50;25.90;101695.00;5012437;28;20021;-86
2024/04/05 10:13:39;;;;;;;0.20;0.20;;;;;;;25.63;27.25;101716.69;5015509;28;20540;-90
2024/04/05 10:16:05;;;;;;;0.20;0.20;;;;;;;25.54;26.69;101696.34;4999787;28;20053;-90
2024/04/05 10:18:38;;;;;;;0.20;0.20;;;;;;;25.76;26.32;101708.41;5033995;28;20022;-87
2024/04/05 10:21:08;;;;;;;0.20;0.20;;;;;;;25.92;26.00;101712.09;5030314;28;20032;-90
2024/04/05 10:23:34;;;;;;;0.20;0.20;;;;;;;26.03;26.08;101703.91;5014711;28;20989;-83
2024/04/05 10:26:00;;;;;;;0.20;0.20;;;;;;;26.00;25.93;101698.94;5014467;28;20028;-91
2024/04/05 10:28:26;;;;;;;0.20;0.20;;;;;;;26.09;26.64;101696.38;5015360;28;20029;-87
2024/04/05 10:30:53;;;;;;;0.20;0.20;;;;;;;26.19;26.16;101683.88;5030157;28;20037;-88
2024/04/05 10:33:19;;;;;;;0.20;0.20;;;;;;;26.22;26.40;101695.00;5031094;28;20032;-90
2024/04/05 10:35:51;;;;;;;0.20;0.20;;;;;;;26.26;25.43;101699.03;5035984;28;20108;-91
2024/04/05 10:38:16;;;;;;;0.20;0.20;;;;;;;26.51;25.92;101686.84;5010029;28;20044;-91
2024/04/05 10:40:58;;;;;;;0.20;0.20;;;;;;;26.72;25.44;101673.22;5012105;28;20041;-92
2024/04/05 10:43:23;;;;;;;0.20;0.20;;;;;;;27.04;28.34;101683.28;5011632;28;20069;-91
2024/04/05 10:45:53;;;;;;;0.20;0.20;;;;;;;27.18;26.99;101668.56;5007161;28;20455;-94
2024/04/05 10:48:19;;;;;;;0.20;0.20;;;;;;;27.16;27.92;101670.56;5019623;28;20028;-91
2024/04/05 10:50:47;;;;;;;0.20;0.20;;;;;;;26.79;26.08;101663.66;5003573;28;20029;-91
2024/04/05 10:53:16;;;;;;;0.20;0.20;;;;;;;26.62;25.48;101676.97;5021352;28;20044;-93
2024/04/05 10:56:05;;;;;;;0.20;0.20;;;;;;;26.72;27.43;101662.59;5033568;28;20021;-89
2024/04/05 10:58:31;;;;;;;0.20;0.20;;;;;;;26.74;25.82;101670.41;5051290;28;20052;-87
2024/04/05 11:00:57;;;;;;;0.20;0.20;;;;;;;26.85;26.10;101659.56;5031724;28;20029;-86
2024/04/05 11:03:22;;;;;;;0.20;0.20;;;;;;;27.02;25.69;101665.78;5014976;28;20033;-88
2024/04/05 11:05:48;;;;;;;0.20;0.20;;;;;;;27.02;25.23;101664.00;5031600;28;20021;-85
2024/04/05 11:08:14;;;;;;;0.20;0.20;;;;;;;26.95;24.93;101652.31;5026249;28;20040;-84
2024/04/05 11:10:40;;;;;;;0.20;0.20;;;;;;;27.06;26.77;101660.06;5017550;28;20022;-88
2024/04/05 11:13:18;;;;;;;0.20;0.20;;;;;;;27.13;25.20;101645.13;5027709;28;20040;-91
2024/04/05 11:15:44;;;;;;;0.20;0.20;;;;;;;26.90;25.00;101649.28;5028757;28;20026;-84
2024/04/05 11:18:11;;;;;;;0.20;0.20;;;;;;;27.02;26.10;101642.75;5010891;28;20029;-88
2024/04/05 11:20:39;;;;;;;0.20;0.20;;;;;;;27.22;25.76;101642.50;5028775;28;20030;-86